Southington, CT (06489)

5:20 AM EDT on August 03, 2015 (GMT -0400)
Hart St | | Change Station
CLOSE
Current Station
Personal Weather Station
Location: Southington, CT
Elevation: 256 ft
Nearby Weather Stations

Elev 256 ft 41.61 °N, 72.88 °W | Updated 1 second ago

Clear
Clear
67.6 °F
Feels Like 67.6 °F
N
0.0
Wind Variable Wind from ENE
Gusts 0.0 mph

Today
High -- | Low -- °F
--% Chance of Precip.
Yesterday
High -- | Low -- °F
Precip. -- in
5:47 AM 8:07 PM
Waning Gibbous, 88% visible
Pressure 29.83 in
Visibility -9999.0 miles
Clouds Clear
Dew Point 68 °F
Humidity 99%
Rainfall 0.00 in
Snow Depth Not available.
UV 0.0 out of 12
Pollen 7.40 out of 12
Air Quality Not available.
Flu Activity Not available.
METAR KMMK 030853Z AUTO 00000KT CLR 18/17 A2984 RMK AO2 SLP102 T01780167 56005 TSNO $

More Conditions Fewer Conditions

Pressure 29.83 in
Visibility -9999.0 miles
Clouds Clear
Dew Point 68 °F
Humidity 99%
Rainfall 0.00 in
Snow Depth Not available.
UV 0.0 out of 12
Pollen 7.40 out of 12
Air Quality Not available.
Flu Activity Not available.
METAR KMMK 030853Z AUTO 00000KT CLR 18/17 A2984 RMK AO2 SLP102 T01780167 56005 TSNO $

More Conditions Fewer Conditions

10-Day Weather Forecast

×

Almanac

Astronomy

Aug. 03, 2015 Rise Set
Actual Time
Civil Twilight
Nautical Twilight
Astronomical Twilight
Moon
Length of Visible Light
Length of Day
Tomorrow will be .
, % of the Moon is Illuminated

Today's Extremes

State Highs State Lows

Community

WunderPhotos

Upload Photos

1,843,594 photos uploaded!

WunderBlogs® & News

Nearby

Air Quality

  Air Quality AQ Index Pollutant
Not available.

Snow Depth

Station Depth Elevation

Earthquake Activity

City Distance Mag. Time & Date
Minimum magnitude displayed is 2.5.

Coastal Water Temperatures

Place Temperature

Stations

Nearby Weather Stations

Station Location Temp. Windchill Dew Point Humidity Wind Precip. Elev Updated Type